Terminal Aerodrome Forecast
Issued by NWS

Home | Current Version | Previous Version | Graphics & Text | Print | Product List | Glossary On
Versions: 1 2 3 4 5 6 7 8 9 10 11 12 13 14 15
000
FTUS43 KOAX 250004 AAA
TAFCDR
TAF AMD
KCDR 250004Z 2500/2524 VRB05KT 3SM -SN BR BKN025 OVC050
      TEMPO 2500/2502 1/2SM SN FG BKN005 OVC015
     FM250200 27009KT P6SM BKN060
     FM251700 29018G28KT P6SM SCT050 BKN100=

USA.gov is the U.S. government's official web portal to all federal, state and local government web resources and services.